createdAt,value
2023-03-17T00:01:54.581Z,3.50
2023-03-17T00:04:24.488Z,3.97
2023-03-17T00:06:51.856Z,4.20
2023-03-17T00:09:20.256Z,3.58
2023-03-17T00:11:48.115Z,3.83
2023-03-17T00:14:15.170Z,3.30
2023-03-17T00:16:44.410Z,3.30
2023-03-17T00:19:37.074Z,3.40
2023-03-17T00:22:06.163Z,4.13
2023-03-17T00:24:33.651Z,3.38
2023-03-17T00:27:00.862Z,4.53
2023-03-17T00:29:28.084Z,4.80
2023-03-17T00:31:57.569Z,4.13
2023-03-17T00:34:24.200Z,4.53
2023-03-17T00:36:51.676Z,5.55
2023-03-17T00:39:19.013Z,5.93
2023-03-17T00:44:12.748Z,3.97
2023-03-17T00:46:41.698Z,4.72
2023-03-17T00:49:21.424Z,3.92
2023-03-17T00:51:49.721Z,4.22
2023-03-17T00:54:17.863Z,4.25
2023-03-17T00:56:45.715Z,4.75
2023-03-17T00:59:39.001Z,4.88
2023-03-17T01:02:05.755Z,4.32
2023-03-17T01:04:34.001Z,4.40
2023-03-17T01:07:00.716Z,4.05
2023-03-17T01:09:28.492Z,4.30
2023-03-17T01:11:55.826Z,4.80
2023-03-17T01:14:23.028Z,4.72
2023-03-17T01:16:50.572Z,4.07
2023-03-17T01:19:17.242Z,4.93
2023-03-17T01:21:43.918Z,4.03
2023-03-17T01:24:10.652Z,4.53
2023-03-17T01:26:37.876Z,4.53
2023-03-17T01:29:06.374Z,4.25
2023-03-17T01:31:33.075Z,4.07
2023-03-17T01:33:59.908Z,5.28
2023-03-17T01:36:26.644Z,4.60
2023-03-17T01:38:53.796Z,4.28
2023-03-17T01:41:20.952Z,4.32
2023-03-17T01:43:47.932Z,4.15
2023-03-17T01:46:14.832Z,4.90
2023-03-17T01:49:15.939Z,5.03
2023-03-17T01:51:45.291Z,4.15
2023-03-17T01:54:22.027Z,3.85
2023-03-17T01:56:51.800Z,4.95
2023-03-17T01:59:23.905Z,4.68
2023-03-17T02:01:54.586Z,4.10
2023-03-17T02:04:21.986Z,4.20
2023-03-17T02:06:57.856Z,4.30
2023-03-17T02:09:25.118Z,4.22
2023-03-17T02:11:51.950Z,3.90
2023-03-17T02:14:19.002Z,3.40
2023-03-17T02:16:45.780Z,3.90
2023-03-17T02:19:12.785Z,5.13
2023-03-17T02:21:41.738Z,5.18
2023-03-17T02:24:17.657Z,4.78
2023-03-17T02:26:46.196Z,4.40
2023-03-17T02:29:13.037Z,4.22
2023-03-17T02:31:39.795Z,4.20
2023-03-17T02:34:06.680Z,4.53
2023-03-17T02:36:33.534Z,3.65
2023-03-17T02:39:00.164Z,4.40
2023-03-17T02:41:27.417Z,4.40
2023-03-17T02:43:54.944Z,4.15
2023-03-17T02:46:21.971Z,4.20
2023-03-17T02:48:49.856Z,4.40
2023-03-17T02:51:16.609Z,4.53
2023-03-17T02:53:43.282Z,4.25
2023-03-17T02:56:10.321Z,3.83
2023-03-17T02:58:37.005Z,4.20
2023-03-17T03:01:04.195Z,4.30
2023-03-17T03:03:31.325Z,4.85
2023-03-17T03:05:58.513Z,4.13
2023-03-17T03:08:26.375Z,4.72
2023-03-17T03:10:53.267Z,4.10
2023-03-17T03:13:19.882Z,4.22
2023-03-17T03:15:47.420Z,4.00
2023-03-17T03:18:14.051Z,5.13
2023-03-17T03:20:43.842Z,4.05
2023-03-17T03:23:11.312Z,4.35
2023-03-17T03:25:38.739Z,4.10
2023-03-17T03:28:08.142Z,4.20
2023-03-17T03:30:36.512Z,4.78
2023-03-17T03:33:04.179Z,4.43
2023-03-17T03:35:31.137Z,4.53
2023-03-17T03:37:58.119Z,4.80
2023-03-17T03:40:25.243Z,4.25
2023-03-17T03:42:51.862Z,4.40
2023-03-17T03:45:18.756Z,4.60
2023-03-17T03:47:46.084Z,4.80
2023-03-17T03:50:13.377Z,3.95
2023-03-17T03:52:40.254Z,4.30
2023-03-17T03:55:07.408Z,5.50
2023-03-17T03:57:34.050Z,4.97
2023-03-17T04:00:00.802Z,4.68
2023-03-17T04:02:27.792Z,4.57
2023-03-17T04:04:54.748Z,4.15
2023-03-17T04:07:21.526Z,4.30
2023-03-17T04:09:49.378Z,4.45
2023-03-17T04:12:17.025Z,4.63
2023-03-17T04:14:44.654Z,4.13
2023-03-17T04:17:12.200Z,4.90
2023-03-17T04:19:39.168Z,4.60
2023-03-17T04:22:09.099Z,4.80
2023-03-17T04:24:35.749Z,4.47
2023-03-17T04:27:04.871Z,4.28
2023-03-17T04:29:32.514Z,4.30
2023-03-17T04:31:59.203Z,4.63
2023-03-17T04:34:27.330Z,4.95
2023-03-17T04:36:54.092Z,4.82
2023-03-17T04:39:20.958Z,4.45
2023-03-17T04:41:47.610Z,5.40
2023-03-17T04:44:14.321Z,5.53
2023-03-17T04:46:41.011Z,4.40
2023-03-17T04:49:08.510Z,4.88
2023-03-17T04:51:36.915Z,5.10
2023-03-17T04:54:03.944Z,5.25
2023-03-17T04:56:31.972Z,4.15
2023-03-17T04:58:58.771Z,4.22
2023-03-17T05:01:25.608Z,5.18
2023-03-17T05:03:52.667Z,4.22
2023-03-17T05:06:19.389Z,4.45
2023-03-17T05:08:46.172Z,5.05
2023-03-17T05:11:14.043Z,4.85
2023-03-17T05:13:41.116Z,4.72
2023-03-17T05:16:09.068Z,5.60
2023-03-17T05:18:37.248Z,6.70
2023-03-17T05:21:05.706Z,4.35
2023-03-17T05:23:32.794Z,4.72
2023-03-17T05:25:59.475Z,4.57
2023-03-17T05:28:26.838Z,5.30
2023-03-17T05:30:54.364Z,5.72
2023-03-17T05:33:21.871Z,5.40
2023-03-17T05:35:48.716Z,5.53
2023-03-17T05:38:16.169Z,5.85
2023-03-17T05:40:43.514Z,4.97
2023-03-17T05:43:10.639Z,6.30
2023-03-17T05:45:37.696Z,5.43
2023-03-17T05:48:04.912Z,5.05
2023-03-17T05:50:31.980Z,5.43
2023-03-17T05:52:58.770Z,4.88
2023-03-17T05:55:25.494Z,4.63
2023-03-17T05:57:52.165Z,5.78
2023-03-17T06:00:21.033Z,5.70
2023-03-17T06:02:47.795Z,5.90
2023-03-17T06:05:14.578Z,5.68
2023-03-17T06:07:53.142Z,4.88
2023-03-17T06:10:22.010Z,6.18
2023-03-17T06:12:48.680Z,5.90
2023-03-17T06:15:16.721Z,6.40
2023-03-17T06:17:43.614Z,6.90
2023-03-17T06:20:11.831Z,4.97
2023-03-17T06:22:42.345Z,5.68
2023-03-17T06:25:15.697Z,5.32
2023-03-17T06:27:42.718Z,6.15
2023-03-17T06:30:10.319Z,5.75
2023-03-17T06:32:38.015Z,5.63
2023-03-17T06:35:05.555Z,5.20
2023-03-17T06:37:32.196Z,5.55
2023-03-17T06:40:00.897Z,6.13
2023-03-17T06:42:28.210Z,5.25
2023-03-17T06:44:55.663Z,5.90
2023-03-17T06:47:25.457Z,6.10
2023-03-17T06:49:53.466Z,5.80
2023-03-17T06:52:20.157Z,5.68
2023-03-17T06:54:47.258Z,5.70
2023-03-17T06:57:14.054Z,5.53
2023-03-17T06:59:41.797Z,6.20
2023-03-17T07:02:10.595Z,5.65
2023-03-17T07:04:38.334Z,5.45
2023-03-17T07:07:05.777Z,5.75
2023-03-17T07:09:35.759Z,5.82
2023-03-17T07:12:06.070Z,5.57
2023-03-17T07:14:34.046Z,5.65
2023-03-17T07:17:00.688Z,5.60
2023-03-17T07:19:27.515Z,6.03
2023-03-17T07:21:57.932Z,5.72
2023-03-17T07:24:25.691Z,5.68
2023-03-17T07:26:52.902Z,6.50
2023-03-17T07:29:19.842Z,6.18
2023-03-17T07:31:47.143Z,5.93
2023-03-17T07:34:14.015Z,5.43
2023-03-17T07:36:40.744Z,5.95
2023-03-17T07:39:10.740Z,5.20
2023-03-17T07:41:38.455Z,5.47
2023-03-17T07:44:05.259Z,6.88
2023-03-17T07:46:32.126Z,5.90
2023-03-17T07:48:59.086Z,5.60
2023-03-17T07:51:28.112Z,5.32
2023-03-17T07:54:03.271Z,5.50
2023-03-17T07:56:33.136Z,4.80
2023-03-17T07:59:00.057Z,5.88
2023-03-17T08:01:28.053Z,5.43
2023-03-17T08:03:56.633Z,5.60
2023-03-17T08:06:25.498Z,5.95
2023-03-17T08:08:53.541Z,5.43
2023-03-17T08:11:21.154Z,5.00
2023-03-17T08:13:48.253Z,6.10
2023-03-17T08:16:14.983Z,5.13
2023-03-17T08:18:41.826Z,5.22
2023-03-17T08:21:08.500Z,5.93
2023-03-17T08:23:35.723Z,5.15
2023-03-17T08:26:04.231Z,5.28
2023-03-17T08:28:31.852Z,5.25
2023-03-17T08:31:13.831Z,4.95
2023-03-17T08:33:42.463Z,4.75
2023-03-17T08:36:11.445Z,3.95
2023-03-17T08:38:39.393Z,4.15
2023-03-17T08:41:08.911Z,3.67
2023-03-17T08:43:36.778Z,3.45
2023-03-17T08:46:12.970Z,3.75
2023-03-17T08:48:39.926Z,3.97
2023-03-17T08:51:06.961Z,3.53
2023-03-17T08:53:35.144Z,3.50
2023-03-17T08:56:02.639Z,3.45
2023-03-17T08:58:29.472Z,3.83
2023-03-17T09:01:00.531Z,3.25
2023-03-17T09:03:27.849Z,3.05
2023-03-17T09:05:54.908Z,3.15
2023-03-17T09:08:22.706Z,3.40
2023-03-17T09:10:50.492Z,3.00
2023-03-17T09:13:17.712Z,3.42
2023-03-17T09:15:44.857Z,3.30
2023-03-17T09:18:11.760Z,3.40
2023-03-17T09:20:38.463Z,3.47
2023-03-17T09:23:09.242Z,3.40
2023-03-17T09:25:37.515Z,3.90
2023-03-17T09:28:05.139Z,3.42
2023-03-17T09:30:32.872Z,3.97
2023-03-17T09:33:00.743Z,3.58
2023-03-17T09:35:28.249Z,3.80
2023-03-17T09:37:54.917Z,4.00
2023-03-17T09:40:28.646Z,4.13
2023-03-17T09:43:18.729Z,3.35
2023-03-17T09:45:45.640Z,4.03
2023-03-17T09:48:29.105Z,3.58
2023-03-17T09:53:36.047Z,4.30
2023-03-17T09:56:11.722Z,3.90
2023-03-17T09:58:42.114Z,3.63
2023-03-17T10:01:10.437Z,4.53
2023-03-17T10:03:37.604Z,4.25
2023-03-17T10:06:44.960Z,3.95
2023-03-17T10:09:26.116Z,4.03
2023-03-17T10:12:09.981Z,3.67
2023-03-17T10:14:51.689Z,3.97
2023-03-17T10:17:26.193Z,4.03
2023-03-17T10:19:53.034Z,4.00
2023-03-17T10:22:25.388Z,4.07
2023-03-17T10:24:56.920Z,4.77
2023-03-17T10:27:23.606Z,3.92
2023-03-17T10:29:50.885Z,4.45
2023-03-17T10:32:17.504Z,4.38
2023-03-17T10:34:44.421Z,4.07
2023-03-17T10:37:17.756Z,3.88
2023-03-17T10:39:49.584Z,3.58
2023-03-17T10:42:27.886Z,3.85
2023-03-17T10:45:15.586Z,3.53
2023-03-17T10:47:48.340Z,3.88
2023-03-17T10:50:15.469Z,3.67
2023-03-17T10:52:42.674Z,3.47
2023-03-17T10:55:14.653Z,4.28
2023-03-17T10:57:51.531Z,3.67
2023-03-17T11:00:20.242Z,3.92
2023-03-17T11:02:58.404Z,3.78
2023-03-17T11:05:29.681Z,3.40
2023-03-17T11:08:19.086Z,3.35
2023-03-17T11:10:46.061Z,4.40
2023-03-17T11:13:18.828Z,3.97
2023-03-17T11:16:08.331Z,3.35
2023-03-17T11:18:37.488Z,2.90
2023-03-17T11:21:08.192Z,4.82
2023-03-17T11:23:47.629Z,3.55
2023-03-17T11:26:45.286Z,3.70
2023-03-17T11:29:24.536Z,3.38
2023-03-17T11:31:59.945Z,3.13
2023-03-17T11:34:33.863Z,3.08
2023-03-17T11:37:37.871Z,3.30
2023-03-17T11:40:19.769Z,3.10
2023-03-17T11:43:06.491Z,3.30
2023-03-17T11:45:52.684Z,3.33
2023-03-17T11:48:31.760Z,3.53
2023-03-17T11:51:20.215Z,3.30
2023-03-17T11:53:49.575Z,3.38
2023-03-17T11:56:21.740Z,3.50
2023-03-17T11:58:56.390Z,3.30
2023-03-17T12:01:30.137Z,3.55
2023-03-17T12:04:24.480Z,3.30
2023-03-17T12:06:58.712Z,3.50
2023-03-17T12:09:35.787Z,3.40
2023-03-17T12:12:04.476Z,3.30
2023-03-17T12:14:36.175Z,3.00
2023-03-17T12:17:12.490Z,2.88
2023-03-17T12:19:54.367Z,3.65
2023-03-17T12:22:36.740Z,3.20
2023-03-17T12:25:12.888Z,3.50
2023-03-17T12:28:11.067Z,3.67
2023-03-17T12:30:50.128Z,3.60
2023-03-17T12:33:24.776Z,3.20
2023-03-17T12:35:52.162Z,3.10
2023-03-17T12:38:37.432Z,3.17
2023-03-17T12:41:31.571Z,3.53
2023-03-17T12:44:39.362Z,3.30
2023-03-17T12:47:24.299Z,3.03
2023-03-17T12:50:42.155Z,2.72
2023-03-17T12:53:11.378Z,3.47
2023-03-17T12:55:38.867Z,3.60
2023-03-17T12:58:24.792Z,2.85
2023-03-17T13:01:23.332Z,3.92
2023-03-17T13:03:58.908Z,3.60
2023-03-17T13:06:25.754Z,3.70
2023-03-17T13:08:53.537Z,3.22
2023-03-17T13:11:36.799Z,3.00
2023-03-17T13:16:46.675Z,3.30
2023-03-17T13:19:18.812Z,3.60
2023-03-17T13:22:00.714Z,3.00
2023-03-17T13:24:46.986Z,3.35
2023-03-17T13:27:34.040Z,3.10
2023-03-17T13:30:24.375Z,2.90
2023-03-17T13:33:11.315Z,3.28
2023-03-17T13:36:03.042Z,3.95
2023-03-17T13:38:35.563Z,3.20
2023-03-17T13:41:14.266Z,2.95
2023-03-17T13:44:13.668Z,3.28
2023-03-17T13:46:44.429Z,3.35
2023-03-17T13:49:16.672Z,3.60
2023-03-17T13:51:56.486Z,2.78
2023-03-17T13:54:35.336Z,3.00
2023-03-17T13:57:26.307Z,3.38
2023-03-17T14:00:15.164Z,3.50
2023-03-17T14:02:43.881Z,3.47
2023-03-17T14:05:29.467Z,3.33
2023-03-17T14:08:26.618Z,3.22
2023-03-17T14:11:00.631Z,3.25
2023-03-17T14:13:34.454Z,4.10
2023-03-17T14:16:30.065Z,3.95
2023-03-17T14:19:21.800Z,3.65
2023-03-17T14:21:48.817Z,3.83
2023-03-17T14:24:25.576Z,3.30
2023-03-17T14:26:53.104Z,3.78
2023-03-17T14:29:31.079Z,4.32
2023-03-17T14:32:07.691Z,4.13
2023-03-17T14:34:34.467Z,4.30
2023-03-17T14:37:02.944Z,4.38
2023-03-17T14:39:29.957Z,4.07
2023-03-17T14:42:05.127Z,4.82
2023-03-17T14:44:39.831Z,4.60
2023-03-17T14:47:14.750Z,4.30
2023-03-17T14:49:41.523Z,4.70
2023-03-17T14:52:20.832Z,4.47
2023-03-17T14:54:53.646Z,5.18
2023-03-17T14:57:26.214Z,5.28
2023-03-17T15:00:21.343Z,5.05
2023-03-17T15:02:56.360Z,5.07
2023-03-17T15:05:28.714Z,5.80
2023-03-17T15:07:55.462Z,4.82
2023-03-17T15:10:25.268Z,5.15
2023-03-17T15:13:02.121Z,5.88
2023-03-17T15:15:32.078Z,6.07
2023-03-17T15:18:03.075Z,5.35
2023-03-17T15:20:33.946Z,5.07
2023-03-17T15:23:06.204Z,5.65
2023-03-17T15:25:42.142Z,4.93
2023-03-17T15:28:13.301Z,4.45
2023-03-17T15:30:48.515Z,5.35
2023-03-17T15:33:35.526Z,6.22
2023-03-17T15:36:02.636Z,5.40
2023-03-17T15:38:29.689Z,5.47
2023-03-17T15:40:57.086Z,5.50
2023-03-17T15:43:23.712Z,5.40
2023-03-17T15:46:05.824Z,5.82
2023-03-17T15:48:36.345Z,5.20
2023-03-17T15:51:05.535Z,5.80
2023-03-17T15:53:32.354Z,6.30
2023-03-17T15:55:59.306Z,6.38
2023-03-17T15:58:26.222Z,6.60
2023-03-17T16:00:57.162Z,6.70
2023-03-17T16:03:33.395Z,6.72
2023-03-17T16:06:02.651Z,5.72
2023-03-17T16:08:29.252Z,6.80
2023-03-17T16:10:55.882Z,5.28
2023-03-17T16:13:22.506Z,6.90
2023-03-17T16:15:55.187Z,5.90
2023-03-17T16:18:31.492Z,6.13
2023-03-17T16:20:58.477Z,7.13
2023-03-17T16:23:28.012Z,6.30
2023-03-17T16:25:59.271Z,5.97
2023-03-17T16:28:32.998Z,5.50
2023-03-17T16:31:01.934Z,5.82
2023-03-17T16:33:33.323Z,5.55
2023-03-17T16:36:01.012Z,6.57
2023-03-17T16:38:32.973Z,6.45
2023-03-17T16:41:07.971Z,4.97
2023-03-17T16:43:40.099Z,6.80
2023-03-17T16:46:07.781Z,5.57
2023-03-17T16:48:34.622Z,6.00
2023-03-17T16:51:01.530Z,6.57
2023-03-17T16:53:28.142Z,5.97
2023-03-17T16:55:55.843Z,6.63
2023-03-17T16:58:28.955Z,6.28
2023-03-17T17:01:02.707Z,6.57
2023-03-17T17:03:31.386Z,6.80
2023-03-17T17:05:58.289Z,6.82
2023-03-17T17:08:24.914Z,7.30
2023-03-17T17:10:51.822Z,6.82
2023-03-17T17:13:18.502Z,7.35
2023-03-17T17:15:45.339Z,10.65
2023-03-17T17:18:18.293Z,6.97
2023-03-17T17:20:46.029Z,6.20
2023-03-17T17:23:16.014Z,5.88
2023-03-17T17:25:43.491Z,5.53
2023-03-17T17:28:12.093Z,5.47
2023-03-17T17:30:38.746Z,6.13
2023-03-17T17:33:05.647Z,5.97
2023-03-17T17:35:33.369Z,5.97
2023-03-17T17:38:02.072Z,5.63
2023-03-17T17:40:29.569Z,7.78
2023-03-17T17:42:57.749Z,11.48
2023-03-17T17:45:24.773Z,6.65
2023-03-17T17:47:51.590Z,6.63
2023-03-17T17:50:23.425Z,7.15
2023-03-17T17:52:50.754Z,7.43
2023-03-17T17:55:17.709Z,7.05
2023-03-17T17:57:44.364Z,7.15
2023-03-17T18:00:17.241Z,7.60
2023-03-17T18:02:44.887Z,6.47
2023-03-17T18:05:12.845Z,7.25
2023-03-17T18:07:40.457Z,6.82
2023-03-17T18:10:07.785Z,6.88
2023-03-17T18:12:34.499Z,7.90
2023-03-17T18:15:01.147Z,7.55
2023-03-17T18:17:28.040Z,8.13
2023-03-17T18:19:55.200Z,7.82
2023-03-17T18:22:22.666Z,8.38
2023-03-17T18:24:49.966Z,8.27
2023-03-17T18:27:17.010Z,8.38
2023-03-17T18:29:44.064Z,8.73
2023-03-17T18:32:12.506Z,8.75
2023-03-17T18:34:45.941Z,9.20
2023-03-17T18:37:15.515Z,9.25
2023-03-17T18:39:42.680Z,8.85
2023-03-17T18:42:09.811Z,9.15
2023-03-17T18:44:37.015Z,8.20
2023-03-17T18:47:04.381Z,8.63
2023-03-17T18:49:31.147Z,10.05
2023-03-17T18:51:59.560Z,9.77
2023-03-17T18:54:27.729Z,9.55
2023-03-17T18:56:55.227Z,9.27
2023-03-17T18:59:21.886Z,8.98
2023-03-17T19:01:48.571Z,9.30
2023-03-17T19:04:15.635Z,8.70
2023-03-17T19:06:42.798Z,8.82
2023-03-17T19:09:10.990Z,9.48
2023-03-17T19:11:42.053Z,9.00
2023-03-17T19:14:09.948Z,9.73
2023-03-17T19:16:36.805Z,9.85
2023-03-17T19:19:03.547Z,8.25
2023-03-17T19:21:31.098Z,8.07
2023-03-17T19:24:01.238Z,8.52
2023-03-17T19:26:28.110Z,8.10
2023-03-17T19:28:56.724Z,8.02
2023-03-17T19:31:24.761Z,7.90
2023-03-17T19:33:51.872Z,8.90
2023-03-17T19:36:18.643Z,9.32
2023-03-17T19:38:45.799Z,8.80
2023-03-17T19:41:12.826Z,8.52
2023-03-17T19:43:41.389Z,8.73
2023-03-17T19:46:09.689Z,11.68
2023-03-17T19:48:37.446Z,11.23
2023-03-17T19:51:04.801Z,9.13
2023-03-17T19:53:31.427Z,9.02
2023-03-17T19:55:58.069Z,8.73
2023-03-17T19:58:24.728Z,9.98
2023-03-17T20:00:51.652Z,8.20
2023-03-17T20:03:18.658Z,9.55
2023-03-17T20:05:46.465Z,8.60
2023-03-17T20:08:13.720Z,7.75
2023-03-17T20:10:40.464Z,10.23
2023-03-17T20:13:07.229Z,8.68
2023-03-17T20:15:33.905Z,8.02
2023-03-17T20:18:00.788Z,8.45
2023-03-17T20:20:27.558Z,8.27
2023-03-17T20:22:54.265Z,8.95
2023-03-17T20:25:21.876Z,8.30
2023-03-17T20:27:48.555Z,7.72
2023-03-17T20:30:15.573Z,7.85
2023-03-17T20:32:42.295Z,8.45
2023-03-17T20:35:09.202Z,7.03
2023-03-17T20:37:35.911Z,6.68
2023-03-17T20:40:05.306Z,7.20
2023-03-17T20:42:32.111Z,6.85
2023-03-17T20:44:59.036Z,7.47
2023-03-17T20:47:26.679Z,7.53
2023-03-17T20:49:57.872Z,6.05
2023-03-17T20:52:28.254Z,6.55
2023-03-17T20:54:56.213Z,5.60
2023-03-17T20:57:22.956Z,6.63
2023-03-17T20:59:51.359Z,6.72
2023-03-17T21:02:19.390Z,7.05
2023-03-17T21:04:47.716Z,7.10
2023-03-17T21:07:16.126Z,6.18
2023-03-17T21:09:43.279Z,5.78
2023-03-17T21:12:20.582Z,5.68
2023-03-17T21:14:50.700Z,6.70
2023-03-17T21:17:18.143Z,6.75
2023-03-17T21:19:45.157Z,5.90
2023-03-17T21:22:12.544Z,5.40
2023-03-17T21:24:39.922Z,6.45
2023-03-17T21:27:11.285Z,6.57
2023-03-17T21:29:38.736Z,6.07
2023-03-17T21:32:07.346Z,6.07
2023-03-17T21:34:34.590Z,6.03
2023-03-17T21:37:01.675Z,5.50
2023-03-17T21:39:29.807Z,6.38
2023-03-17T21:41:57.602Z,5.55
2023-03-17T21:44:24.460Z,6.25
2023-03-17T21:46:51.161Z,5.97
2023-03-17T21:49:18.890Z,5.70
2023-03-17T21:51:46.849Z,6.75
2023-03-17T21:54:14.504Z,5.43
2023-03-17T21:56:41.904Z,6.15
2023-03-17T21:59:11.153Z,5.63
2023-03-17T22:01:39.742Z,6.10
2023-03-17T22:04:07.051Z,6.22
2023-03-17T22:06:34.155Z,5.55
2023-03-17T22:09:01.264Z,5.75
2023-03-17T22:11:27.954Z,5.60
2023-03-17T22:13:55.902Z,6.00
2023-03-17T22:16:22.605Z,5.10
2023-03-17T22:18:49.248Z,5.30
2023-03-17T22:21:15.898Z,5.88
2023-03-17T22:23:42.644Z,5.88
2023-03-17T22:26:13.352Z,5.22
2023-03-17T22:28:40.799Z,5.20
2023-03-17T22:31:12.208Z,4.85
2023-03-17T22:33:39.240Z,4.70
2023-03-17T22:36:06.582Z,5.35
2023-03-17T22:38:34.285Z,5.40
2023-03-17T22:41:08.075Z,5.82
2023-03-17T22:43:36.130Z,5.85
2023-03-17T22:46:03.716Z,4.72
2023-03-17T22:48:32.687Z,4.90
2023-03-17T22:51:07.923Z,5.68
2023-03-17T22:53:35.769Z,5.63
2023-03-17T22:56:04.172Z,5.10
2023-03-17T22:58:30.945Z,5.05
2023-03-17T23:00:57.664Z,5.68
2023-03-17T23:03:26.032Z,5.72
2023-03-17T23:05:57.114Z,5.53
2023-03-17T23:08:24.142Z,4.90
2023-03-17T23:10:51.257Z,5.50
2023-03-17T23:13:19.591Z,6.13
2023-03-17T23:15:47.424Z,6.50
2023-03-17T23:18:14.312Z,7.43
2023-03-17T23:20:41.931Z,6.50
2023-03-17T23:23:10.852Z,5.25
2023-03-17T23:25:38.399Z,5.90
2023-03-17T23:28:06.883Z,6.40
2023-03-17T23:30:35.801Z,6.53
2023-03-17T23:33:04.839Z,5.30
2023-03-17T23:35:32.087Z,5.57
2023-03-17T23:37:58.997Z,4.90
2023-03-17T23:40:25.667Z,6.05
2023-03-17T23:42:54.456Z,4.65
2023-03-17T23:45:23.203Z,5.10
2023-03-17T23:47:52.158Z,4.68
2023-03-17T23:50:20.190Z,5.22
2023-03-17T23:52:48.121Z,5.82
2023-03-17T23:55:16.860Z,5.18
2023-03-17T23:57:44.359Z,5.05
